createdAt,value
2023-01-18T00:01:02.180Z,10.73
2023-01-18T00:04:04.807Z,10.60
2023-01-18T00:07:07.385Z,11.10
2023-01-18T00:10:10.985Z,11.50
2023-01-18T00:13:15.007Z,12.00
2023-01-18T00:16:19.284Z,11.03
2023-01-18T00:19:21.919Z,11.20
2023-01-18T00:22:24.495Z,11.00
2023-01-18T00:25:27.252Z,10.27
2023-01-18T00:28:31.333Z,11.07
2023-01-18T00:31:33.968Z,11.10
2023-01-18T00:34:37.227Z,10.60
2023-01-18T00:37:40.373Z,10.27
2023-01-18T00:40:42.943Z,11.20
2023-01-18T00:43:46.319Z,10.47
2023-01-18T00:46:49.922Z,10.47
2023-01-18T00:49:52.506Z,10.93
2023-01-18T00:52:57.844Z,10.80
2023-01-18T00:56:00.782Z,10.60
2023-01-18T00:59:04.725Z,10.20
2023-01-18T01:02:07.493Z,10.87
2023-01-18T01:05:35.648Z,10.33
2023-01-18T01:08:38.300Z,11.13
2023-01-18T01:12:00.855Z,12.17
2023-01-18T01:15:22.849Z,11.10
2023-01-18T01:18:43.162Z,11.47
2023-01-18T01:22:03.093Z,11.43
2023-01-18T01:25:23.689Z,12.27
2023-01-18T01:28:26.419Z,13.10
2023-01-18T01:31:30.335Z,12.10
2023-01-18T01:34:33.130Z,12.60
2023-01-18T01:37:35.695Z,12.53
2023-01-18T01:40:38.289Z,13.93
2023-01-18T01:43:44.651Z,12.27
2023-01-18T01:46:52.267Z,13.10
2023-01-18T01:49:59.044Z,12.97
2023-01-18T01:53:01.838Z,13.07
2023-01-18T01:56:05.824Z,13.67
2023-01-18T01:59:10.021Z,13.97
2023-01-18T02:02:14.224Z,13.30
2023-01-18T02:05:18.836Z,13.47
2023-01-18T02:08:23.219Z,14.87
2023-01-18T02:11:25.904Z,14.20
2023-01-18T02:14:28.824Z,13.13
2023-01-18T02:17:46.685Z,14.33
2023-01-18T02:21:13.831Z,13.67
2023-01-18T02:24:53.181Z,14.33
2023-01-18T02:28:07.613Z,14.40
2023-01-18T02:31:15.920Z,13.83
2023-01-18T02:34:26.819Z,13.83
2023-01-18T02:37:43.554Z,14.13
2023-01-18T02:41:09.752Z,14.17
2023-01-18T02:44:35.005Z,14.20
2023-01-18T02:47:38.420Z,14.60
2023-01-18T02:50:41.995Z,13.50
2023-01-18T02:53:47.473Z,13.23
2023-01-18T02:56:54.099Z,13.43
2023-01-18T03:00:00.395Z,13.70
2023-01-18T03:03:05.625Z,12.80
2023-01-18T03:06:09.554Z,12.87
2023-01-18T03:09:18.333Z,13.27
2023-01-18T03:12:27.566Z,14.07
2023-01-18T03:15:39.887Z,12.77
2023-01-18T03:19:01.026Z,13.80
2023-01-18T03:22:05.784Z,13.47
2023-01-18T03:25:11.292Z,14.00
2023-01-18T03:28:34.869Z,13.20
2023-01-18T03:32:03.575Z,13.10
2023-01-18T03:35:11.543Z,13.30
2023-01-18T03:38:14.923Z,13.87
2023-01-18T03:41:19.394Z,13.97
2023-01-18T03:44:27.506Z,12.67
2023-01-18T03:47:32.199Z,12.43
2023-01-18T03:50:44.992Z,13.00
2023-01-18T03:53:54.149Z,12.77
2023-01-18T03:57:02.695Z,12.23
2023-01-18T04:00:08.606Z,13.00
2023-01-18T04:03:12.628Z,12.80
2023-01-18T04:06:15.459Z,12.30
2023-01-18T04:09:18.051Z,12.90
2023-01-18T04:12:20.634Z,12.57
2023-01-18T04:15:23.489Z,12.53
2023-01-18T04:18:27.411Z,12.20
2023-01-18T04:21:30.027Z,12.10
2023-01-18T04:24:32.623Z,11.73
2023-01-18T04:27:35.200Z,12.60
2023-01-18T04:30:37.764Z,12.33
2023-01-18T04:33:41.711Z,12.97
2023-01-18T04:36:44.648Z,12.83
2023-01-18T04:39:47.764Z,12.80
2023-01-18T04:42:54.152Z,12.50
2023-01-18T04:45:57.417Z,12.10
2023-01-18T04:49:01.682Z,12.60
2023-01-18T04:52:07.211Z,12.73
2023-01-18T04:55:15.730Z,12.33
2023-01-18T04:58:18.448Z,12.83
2023-01-18T05:01:21.596Z,12.70
2023-01-18T05:04:25.609Z,12.40
2023-01-18T05:07:30.608Z,12.33
2023-01-18T05:10:33.556Z,12.43
2023-01-18T05:13:36.203Z,12.93
2023-01-18T05:16:38.810Z,11.87
2023-01-18T05:19:42.761Z,13.73
2023-01-18T05:22:45.336Z,12.33
2023-01-18T05:25:53.818Z,12.70
2023-01-18T05:28:58.538Z,13.90
2023-01-18T05:32:01.154Z,14.20
2023-01-18T05:35:05.525Z,13.43
2023-01-18T05:38:08.567Z,12.97
2023-01-18T05:41:11.357Z,13.37
2023-01-18T05:44:14.095Z,12.90
2023-01-18T05:47:16.685Z,12.23
2023-01-18T05:50:20.608Z,12.77
2023-01-18T05:53:24.004Z,11.73
2023-01-18T05:56:26.592Z,12.43
2023-01-18T05:59:29.168Z,12.03
2023-01-18T06:02:31.743Z,12.27
2023-01-18T06:05:35.704Z,12.67
2023-01-18T06:08:38.347Z,11.57
2023-01-18T06:11:40.959Z,10.90
2023-01-18T06:14:43.522Z,11.67
2023-01-18T06:17:47.025Z,10.93
2023-01-18T06:20:53.625Z,12.27
2023-01-18T06:23:56.205Z,12.33
2023-01-18T06:26:59.169Z,12.63
2023-01-18T06:30:01.728Z,12.20
2023-01-18T06:33:06.769Z,13.00
2023-01-18T06:36:11.037Z,15.17
2023-01-18T06:39:13.649Z,13.30
2023-01-18T06:42:16.247Z,13.63
2023-01-18T06:45:21.926Z,13.80
2023-01-18T06:48:26.314Z,12.27
2023-01-18T06:51:30.282Z,11.57
2023-01-18T06:54:32.862Z,11.83
2023-01-18T06:57:35.446Z,11.40
2023-01-18T07:00:38.763Z,11.47
2023-01-18T07:03:41.361Z,10.67
2023-01-18T07:06:45.387Z,10.77
2023-01-18T07:09:47.936Z,11.00
2023-01-18T07:12:50.844Z,11.13
2023-01-18T07:15:56.435Z,11.50
2023-01-18T07:19:00.616Z,11.77
2023-01-18T07:22:04.604Z,12.87
2023-01-18T07:25:08.055Z,11.93
2023-01-18T07:28:10.619Z,12.40
2023-01-18T07:31:13.517Z,11.00
2023-01-18T07:34:16.084Z,11.00
2023-01-18T07:37:20.023Z,11.53
2023-01-18T07:40:22.963Z,11.33
2023-01-18T07:43:25.602Z,14.37
2023-01-18T07:46:28.226Z,13.70
2023-01-18T07:49:30.807Z,12.87
2023-01-18T07:52:34.748Z,13.23
2023-01-18T07:55:38.762Z,14.43
2023-01-18T07:58:41.626Z,15.40
2023-01-18T08:01:44.267Z,12.90
2023-01-18T08:04:49.875Z,12.37
2023-01-18T08:07:54.548Z,11.47
2023-01-18T08:10:58.236Z,11.40
2023-01-18T08:14:00.800Z,11.83
2023-01-18T08:17:06.296Z,11.77
2023-01-18T08:20:09.976Z,11.87
2023-01-18T08:23:14.651Z,11.23
2023-01-18T08:26:17.224Z,11.23
2023-01-18T08:29:19.786Z,11.90
2023-01-18T08:32:22.404Z,12.07
2023-01-18T08:35:25.953Z,12.20
2023-01-18T08:38:29.901Z,12.23
2023-01-18T08:41:32.471Z,11.63
2023-01-18T08:44:35.074Z,12.47
2023-01-18T08:47:37.652Z,11.93
2023-01-18T08:50:40.262Z,12.93
2023-01-18T08:53:44.290Z,13.20
2023-01-18T08:56:46.861Z,13.10
2023-01-18T08:59:49.418Z,11.67
2023-01-18T09:02:52.210Z,11.70
2023-01-18T09:05:54.817Z,11.63
2023-01-18T09:08:59.387Z,12.30
2023-01-18T09:12:02.008Z,12.67
2023-01-18T09:15:05.191Z,11.50
2023-01-18T09:18:08.227Z,11.83
2023-01-18T09:21:13.230Z,12.47
2023-01-18T09:24:17.190Z,11.63
2023-01-18T09:27:19.842Z,11.53
2023-01-18T09:30:22.610Z,11.63
2023-01-18T09:33:36.753Z,11.63
2023-01-18T09:36:39.937Z,12.20
2023-01-18T09:39:51.991Z,11.57
2023-01-18T09:42:55.094Z,11.10
2023-01-18T09:45:58.022Z,10.80
2023-01-18T09:49:04.158Z,11.73
2023-01-18T09:52:21.043Z,10.97
2023-01-18T09:55:33.155Z,12.27
2023-01-18T09:58:48.555Z,11.30
2023-01-18T10:01:55.000Z,11.73
2023-01-18T10:05:05.434Z,11.70
2023-01-18T10:08:14.789Z,11.33
2023-01-18T10:11:27.055Z,11.07
2023-01-18T10:14:43.197Z,10.43
2023-01-18T10:17:46.626Z,11.30
2023-01-18T10:20:55.275Z,10.37
2023-01-18T10:24:11.410Z,11.57
2023-01-18T10:27:48.472Z,9.83
2023-01-18T10:31:03.792Z,11.03
2023-01-18T10:34:16.017Z,11.03
2023-01-18T10:37:29.240Z,10.47
2023-01-18T10:40:31.984Z,11.20
2023-01-18T10:43:36.107Z,10.70
2023-01-18T10:46:38.805Z,11.33
2023-01-18T10:49:43.710Z,11.20
2023-01-18T10:52:46.672Z,11.23
2023-01-18T10:55:55.714Z,10.40
2023-01-18T10:59:01.465Z,10.63
2023-01-18T11:02:05.161Z,11.30
2023-01-18T11:05:21.729Z,11.80
2023-01-18T11:08:26.323Z,11.13
2023-01-18T11:11:45.159Z,10.90
2023-01-18T11:14:49.165Z,11.07
2023-01-18T11:18:09.295Z,11.73
2023-01-18T11:21:13.004Z,9.60
2023-01-18T11:24:18.219Z,10.83
2023-01-18T11:27:25.928Z,10.60
2023-01-18T11:30:30.054Z,10.80
2023-01-18T11:33:33.311Z,10.47
2023-01-18T11:36:38.854Z,11.13
2023-01-18T11:39:44.743Z,10.63
2023-01-18T11:42:50.170Z,10.10
2023-01-18T11:45:59.428Z,10.27
2023-01-18T11:49:08.482Z,10.23
2023-01-18T11:52:18.483Z,10.77
2023-01-18T11:55:31.381Z,10.53
2023-01-18T11:58:36.460Z,10.50
2023-01-18T12:01:59.895Z,10.20
2023-01-18T12:05:30.523Z,10.77
2023-01-18T12:08:47.531Z,10.87
2023-01-18T12:12:17.669Z,11.07
2023-01-18T12:15:41.800Z,11.50
2023-01-18T12:19:25.411Z,11.50
2023-01-18T12:22:55.454Z,12.27
2023-01-18T12:26:17.154Z,11.10
2023-01-18T12:29:50.765Z,10.50
2023-01-18T12:33:06.419Z,9.87
2023-01-18T12:36:44.531Z,10.03
2023-01-18T12:40:00.406Z,9.70
2023-01-18T12:43:18.493Z,9.50
2023-01-18T12:46:29.121Z,9.17
2023-01-18T12:49:35.774Z,9.57
2023-01-18T12:52:47.542Z,9.67
2023-01-18T12:55:54.407Z,9.83
2023-01-18T12:58:59.541Z,9.53
2023-01-18T13:02:13.782Z,9.67
2023-01-18T13:05:21.591Z,8.40
2023-01-18T13:08:39.019Z,8.30
2023-01-18T13:11:44.264Z,8.57
2023-01-18T13:14:53.045Z,8.30
2023-01-18T13:18:02.660Z,9.20
2023-01-18T13:21:16.624Z,8.57
2023-01-18T13:24:30.662Z,9.13
2023-01-18T13:27:34.326Z,9.30
2023-01-18T13:30:51.663Z,9.90
2023-01-18T13:33:58.009Z,9.40
2023-01-18T13:37:13.921Z,8.93
2023-01-18T13:40:36.269Z,8.93
2023-01-18T13:44:04.531Z,8.63
2023-01-18T13:47:42.789Z,8.63
2023-01-18T13:50:47.237Z,8.53
2023-01-18T13:53:51.086Z,8.80
2023-01-18T13:57:17.498Z,8.83
2023-01-18T14:00:24.923Z,8.60
2023-01-18T14:03:30.683Z,8.67
2023-01-18T14:06:36.547Z,8.57
2023-01-18T14:09:42.790Z,7.93
2023-01-18T14:12:51.446Z,8.13
2023-01-18T14:15:55.276Z,7.00
2023-01-18T14:19:01.714Z,7.30
2023-01-18T14:22:23.564Z,7.40
2023-01-18T14:25:43.154Z,7.73
2023-01-18T14:28:50.251Z,7.90
2023-01-18T14:31:55.888Z,8.00
2023-01-18T14:34:59.982Z,7.30
2023-01-18T14:38:17.465Z,7.03
2023-01-18T14:41:20.733Z,6.67
2023-01-18T14:44:27.058Z,6.57
2023-01-18T14:47:33.222Z,6.83
2023-01-18T14:50:40.738Z,6.47
2023-01-18T14:53:47.276Z,7.10
2023-01-18T14:56:50.045Z,7.00
2023-01-18T14:59:55.871Z,7.33
2023-01-18T15:03:01.429Z,6.83
2023-01-18T15:06:13.696Z,6.97
2023-01-18T15:09:19.340Z,7.20
2023-01-18T15:12:29.128Z,7.47
2023-01-18T15:15:38.741Z,8.53
2023-01-18T15:18:42.630Z,7.83
2023-01-18T15:21:45.950Z,9.33
2023-01-18T15:24:48.731Z,9.10
2023-01-18T15:27:52.810Z,7.93
2023-01-18T15:30:57.507Z,9.77
2023-01-18T15:34:00.272Z,10.20
2023-01-18T15:37:05.379Z,9.00
2023-01-18T15:40:25.101Z,8.20
2023-01-18T15:43:32.510Z,8.50
2023-01-18T15:46:39.509Z,7.93
2023-01-18T15:49:44.944Z,8.80
2023-01-18T15:52:53.874Z,8.83
2023-01-18T15:55:59.516Z,8.77
2023-01-18T15:59:09.796Z,7.83
2023-01-18T16:02:18.894Z,8.13
2023-01-18T16:05:24.075Z,8.07
2023-01-18T16:08:27.582Z,8.23
2023-01-18T16:11:32.211Z,9.00
2023-01-18T16:14:37.091Z,8.57
2023-01-18T16:17:44.821Z,10.07
2023-01-18T16:20:47.565Z,9.23
2023-01-18T16:23:52.684Z,8.73
2023-01-18T16:26:57.612Z,8.07
2023-01-18T16:30:03.255Z,8.60
2023-01-18T16:33:13.139Z,9.10
2023-01-18T16:36:18.847Z,7.87
2023-01-18T16:39:23.921Z,8.33
2023-01-18T16:42:37.102Z,8.10
2023-01-18T16:45:40.701Z,7.97
2023-01-18T16:48:44.667Z,8.57
2023-01-18T16:51:47.442Z,8.90
2023-01-18T16:54:50.039Z,8.40
2023-01-18T16:57:52.624Z,8.57
2023-01-18T17:01:00.814Z,9.00
2023-01-18T17:04:06.439Z,10.57
2023-01-18T17:07:10.609Z,8.90
2023-01-18T17:10:22.052Z,9.23
2023-01-18T17:13:24.922Z,8.77
2023-01-18T17:16:27.776Z,8.97
2023-01-18T17:19:31.806Z,10.50
2023-01-18T17:22:34.367Z,11.23
2023-01-18T17:25:37.007Z,10.63
2023-01-18T17:28:39.604Z,10.07
2023-01-18T17:31:51.770Z,10.83
2023-01-18T17:34:56.922Z,11.83
2023-01-18T17:38:05.729Z,10.67
2023-01-18T17:41:26.696Z,10.90
2023-01-18T17:44:36.849Z,9.70
2023-01-18T17:47:39.928Z,9.70
2023-01-18T17:50:43.895Z,9.53
2023-01-18T17:53:46.463Z,9.73
2023-01-18T17:56:49.082Z,10.30
2023-01-18T17:59:55.474Z,11.50
2023-01-18T18:02:59.842Z,9.57
2023-01-18T18:06:05.655Z,10.20
2023-01-18T18:09:08.217Z,11.23
2023-01-18T18:12:11.866Z,9.07
2023-01-18T18:15:14.471Z,11.33
2023-01-18T18:18:24.404Z,11.47
2023-01-18T18:21:29.070Z,10.30
2023-01-18T18:24:31.760Z,10.50
2023-01-18T18:27:44.905Z,11.80
2023-01-18T18:30:49.020Z,10.63
2023-01-18T18:33:51.684Z,11.10
2023-01-18T18:36:55.607Z,9.83
2023-01-18T18:39:58.199Z,11.47
2023-01-18T18:43:02.872Z,10.23
2023-01-18T18:46:05.918Z,10.53
2023-01-18T18:49:08.716Z,12.43
2023-01-18T18:52:12.668Z,10.97
2023-01-18T18:55:15.412Z,10.87
2023-01-18T18:58:17.992Z,11.13
2023-01-18T19:01:22.618Z,8.87
2023-01-18T19:04:26.280Z,9.80
2023-01-18T19:07:30.279Z,10.87
2023-01-18T19:10:32.920Z,9.73
2023-01-18T19:13:35.501Z,9.23
2023-01-18T19:16:38.239Z,11.70
2023-01-18T19:19:40.918Z,11.20
2023-01-18T19:22:44.873Z,10.30
2023-01-18T19:25:49.177Z,10.33
2023-01-18T19:28:51.876Z,11.07
2023-01-18T19:31:54.587Z,11.27
2023-01-18T19:34:57.173Z,9.67
2023-01-18T19:38:01.105Z,9.60
2023-01-18T19:41:03.716Z,10.07
2023-01-18T19:44:06.617Z,9.30
2023-01-18T19:47:09.231Z,9.27
2023-01-18T19:50:12.183Z,9.17
2023-01-18T19:53:16.172Z,11.50
2023-01-18T19:56:18.725Z,8.90
2023-01-18T19:59:21.326Z,9.20
2023-01-18T20:02:24.451Z,9.23
2023-01-18T20:05:27.249Z,9.17
2023-01-18T20:08:31.275Z,8.93
2023-01-18T20:11:33.865Z,9.10
2023-01-18T20:14:41.201Z,8.70
2023-01-18T20:17:44.333Z,9.00
2023-01-18T20:20:47.031Z,8.40
2023-01-18T20:23:50.992Z,8.70
2023-01-18T20:26:55.124Z,9.00
2023-01-18T20:30:00.312Z,9.00
2023-01-18T20:33:03.465Z,9.43
2023-01-18T20:36:06.986Z,8.10
2023-01-18T20:39:11.439Z,8.63
2023-01-18T20:42:15.370Z,8.83
2023-01-18T20:45:18.001Z,9.33
2023-01-18T20:48:20.552Z,8.30
2023-01-18T20:51:23.149Z,8.87
2023-01-18T20:54:27.328Z,8.90
2023-01-18T20:57:31.610Z,8.90
2023-01-18T21:00:34.272Z,9.40
2023-01-18T21:03:36.910Z,8.40
2023-01-18T21:06:39.497Z,8.70
2023-01-18T21:09:43.441Z,8.80
2023-01-18T21:12:48.122Z,8.90
2023-01-18T21:15:55.671Z,8.53
2023-01-18T21:18:59.397Z,8.10
2023-01-18T21:22:02.062Z,9.17
2023-01-18T21:25:06.638Z,8.77
2023-01-18T21:28:09.217Z,8.83
2023-01-18T21:31:12.326Z,8.30
2023-01-18T21:34:14.926Z,8.43
2023-01-18T21:37:17.515Z,8.93
2023-01-18T21:40:21.461Z,8.40
2023-01-18T21:43:41.299Z,8.07
2023-01-18T21:46:45.782Z,8.10
2023-01-18T21:50:21.229Z,8.77
2023-01-18T21:53:41.250Z,8.83
2023-01-18T21:56:45.957Z,9.20
2023-01-18T21:59:48.602Z,8.70
2023-01-18T22:02:51.235Z,8.50
2023-01-18T22:05:53.827Z,8.30
2023-01-18T22:08:56.543Z,8.67
2023-01-18T22:12:01.031Z,8.93
2023-01-18T22:15:04.222Z,8.40
2023-01-18T22:18:07.029Z,8.80
2023-01-18T22:21:09.647Z,8.40
2023-01-18T22:24:13.394Z,9.20
2023-01-18T22:27:17.405Z,8.77
2023-01-18T22:30:20.162Z,8.43
2023-01-18T22:33:22.759Z,9.03
2023-01-18T22:36:25.670Z,9.20
2023-01-18T22:39:28.257Z,8.30
2023-01-18T22:42:32.479Z,8.90
2023-01-18T22:45:35.096Z,8.30
2023-01-18T22:48:38.533Z,8.17
2023-01-18T22:51:41.136Z,8.60
2023-01-18T22:54:43.821Z,8.50
2023-01-18T22:57:47.743Z,8.80
2023-01-18T23:00:50.643Z,7.70
2023-01-18T23:03:54.385Z,9.10
2023-01-18T23:07:00.621Z,9.00
2023-01-18T23:10:03.215Z,8.80
2023-01-18T23:13:07.151Z,8.63
2023-01-18T23:16:30.887Z,9.47
2023-01-18T23:19:34.424Z,8.87
2023-01-18T23:22:37.106Z,8.80
2023-01-18T23:25:39.698Z,8.87
2023-01-18T23:28:43.717Z,8.93
2023-01-18T23:31:46.699Z,8.90
2023-01-18T23:34:49.312Z,9.07
2023-01-18T23:37:51.912Z,8.47
2023-01-18T23:41:13.790Z,9.17
2023-01-18T23:44:35.460Z,9.00
2023-01-18T23:47:55.806Z,8.10
2023-01-18T23:51:16.125Z,8.83
2023-01-18T23:54:18.880Z,8.97
2023-01-18T23:57:21.457Z,8.80
